Time;durP1;ratioP1;P1;durP2;ratioP2;P2;SDS_P1;SDS_P2;PMS_P1;PMS_P2;Temp;Humidity;BMP_temperature;BMP_pressure;BME280_temperature;BME280_humidity;BME280_pressure;Samples;Min_cycle;Max_cycle;Signal;HPM_P1;HPM_P2
2022/04/11 00:01:58;;;;;;;8.30;6.13;;;1.00;99.90;;;;;;4953560;28;20975;-71
2022/04/11 00:04:24;;;;;;;8.67;6.67;;;1.10;99.90;;;;;;4953572;28;20925;-71
2022/04/11 00:06:49;;;;;;;7.30;6.60;;;1.10;99.90;;;;;;4953994;28;20188;-72
2022/04/11 00:09:15;;;;;;;7.17;6.33;;;1.10;99.90;;;;;;4953607;28;20419;-72
2022/04/11 00:11:41;;;;;;;12.80;7.23;;;1.00;99.90;;;;;;4953413;28;20206;-72
2022/04/11 00:14:06;;;;;;;9.10;6.27;;;1.00;99.90;;;;;;4953552;29;20292;-72
2022/04/11 00:16:32;;;;;;;7.77;6.40;;;1.00;99.90;;;;;;4953493;28;20589;-70
2022/04/11 00:18:58;;;;;;;8.33;7.30;;;1.00;99.90;;;;;;4953642;28;20620;-72
2022/04/11 00:21:23;;;;;;;9.90;6.07;;;1.00;99.90;;;;;;4953277;28;20201;-72
2022/04/11 00:23:49;;;;;;;7.50;5.60;;;1.00;99.90;;;;;;4953547;29;20392;-72
2022/04/11 00:26:14;;;;;;;7.47;6.67;;;1.00;99.90;;;;;;4953447;28;20186;-72
2022/04/11 00:28:40;;;;;;;7.47;6.77;;;1.00;99.90;;;;;;4953404;28;20187;-72
2022/04/11 00:31:06;;;;;;;8.20;6.63;;;1.00;99.90;;;;;;4953010;29;20273;-72
2022/04/11 00:33:31;;;;;;;10.23;7.00;;;0.90;99.90;;;;;;4953339;28;20209;-72
2022/04/11 00:35:57;;;;;;;7.23;6.60;;;0.90;99.90;;;;;;4953360;29;20169;-71
2022/04/11 00:38:22;;;;;;;9.10;6.17;;;1.00;99.90;;;;;;4953459;28;20174;-73
2022/04/11 00:40:48;;;;;;;9.50;6.60;;;1.00;99.90;;;;;;4953052;28;20201;-72
2022/04/11 00:43:49;;;;;;;12.57;6.10;;;1.00;99.90;;;;;;4953364;28;20542;-72
2022/04/11 00:46:14;;;;;;;7.80;5.67;;;1.00;99.90;;;;;;4951108;29;20253;-71
2022/04/11 00:48:40;;;;;;;7.83;5.90;;;1.00;99.90;;;;;;4955059;28;20426;-72
2022/04/11 00:51:15;;;;;;;5.97;5.37;;;0.90;99.90;;;;;;4957024;28;20209;-73
2022/04/11 00:53:44;;;;;;;6.60;5.70;;;0.90;99.90;;;;;;4957029;29;20200;-72
2022/04/11 00:56:11;;;;;;;6.40;5.57;;;0.90;99.90;;;;;;4957243;29;20499;-71
2022/04/11 00:58:39;;;;;;;9.33;6.63;;;0.80;99.90;;;;;;4956920;29;20396;-72
2022/04/11 02:31:41;;;;;;;7.03;5.30;;;1.40;99.90;;;;;;5637891;23;20577;-73
2022/04/11 02:34:07;;;;;;;6.83;5.27;;;1.40;99.90;;;;;;4991777;28;21026;-73
2022/04/11 02:36:32;;;;;;;9.60;6.13;;;1.40;99.90;;;;;;4993008;28;20204;-73
2022/04/11 02:38:58;;;;;;;5.17;4.77;;;1.40;99.90;;;;;;4984817;28;20188;-73
2022/04/11 02:41:23;;;;;;;6.53;5.37;;;1.40;99.90;;;;;;4980675;28;20355;-73
2022/04/11 02:43:49;;;;;;;12.00;5.50;;;1.50;99.90;;;;;;4974257;28;20714;-73
2022/04/11 02:46:15;;;;;;;6.00;5.30;;;1.50;99.90;;;;;;4974288;28;20180;-73
2022/04/11 02:48:41;;;;;;;10.93;6.33;;;1.50;99.90;;;;;;4974378;28;20259;-73
2022/04/11 02:51:07;;;;;;;8.33;5.77;;;1.50;99.90;;;;;;4973670;28;20447;-73
2022/04/11 02:53:32;;;;;;;5.93;5.33;;;1.60;99.90;;;;;;4974076;28;20215;-73
2022/04/11 02:55:58;;;;;;;6.93;5.70;;;1.60;99.90;;;;;;4973860;28;20544;-73
2022/04/11 02:58:23;;;;;;;7.10;5.37;;;1.60;99.90;;;;;;4973809;28;20186;-72
2022/04/11 03:00:49;;;;;;;8.37;6.37;;;1.60;99.90;;;;;;4973861;28;20225;-72
2022/04/11 03:03:14;;;;;;;6.60;5.73;;;1.60;99.90;;;;;;4973779;28;20604;-73
2022/04/11 03:05:40;;;;;;;10.03;6.20;;;1.60;99.90;;;;;;4974050;28;20214;-73
2022/04/11 03:08:05;;;;;;;6.40;5.70;;;1.60;99.90;;;;;;4973950;28;20198;-72
2022/04/11 03:10:31;;;;;;;7.87;5.80;;;1.70;99.90;;;;;;4972905;28;20205;-73
2022/04/11 03:12:56;;;;;;;10.17;7.50;;;1.60;99.90;;;;;;4973838;28;20195;-73
2022/04/11 03:15:22;;;;;;;6.67;5.90;;;1.70;99.90;;;;;;4976309;28;20205;-74
2022/04/11 03:17:48;;;;;;;8.27;6.03;;;1.70;99.90;;;;;;4976890;28;20185;-74
2022/04/11 03:20:13;;;;;;;9.10;6.30;;;1.70;99.90;;;;;;4975167;28;20191;-73
2022/04/11 03:22:39;;;;;;;5.40;4.90;;;1.70;99.90;;;;;;4973898;28;20704;-73
2022/04/11 03:25:05;;;;;;;9.53;7.07;;;1.70;99.90;;;;;;4973461;28;20211;-73
2022/04/11 03:27:31;;;;;;;10.37;7.20;;;1.70;99.90;;;;;;4973711;28;20268;-74
2022/04/11 03:29:56;;;;;;;7.30;5.93;;;1.70;99.90;;;;;;4973554;28;20552;-72
2022/04/11 03:32:22;;;;;;;11.30;6.83;;;1.70;99.90;;;;;;4973137;28;20218;-73
2022/04/11 03:34:50;;;;;;;9.17;7.03;;;1.70;99.90;;;;;;4973698;28;20205;-73
2022/04/11 03:37:15;;;;;;;8.50;7.10;;;1.70;99.90;;;;;;4973373;28;20607;-73
2022/04/11 03:39:41;;;;;;;8.13;6.80;;;1.70;99.90;;;;;;4973524;28;20412;-73
2022/04/11 03:42:07;;;;;;;7.77;5.87;;;1.70;99.90;;;;;;4972919;28;20261;-73
2022/04/11 03:44:35;;;;;;;8.30;6.47;;;1.70;99.90;;;;;;4973216;28;20187;-73
2022/04/11 03:47:00;;;;;;;17.43;7.33;;;1.70;99.90;;;;;;4973258;28;20670;-73
2022/04/11 03:49:26;;;;;;;7.13;6.00;;;1.70;99.90;;;;;;4973141;28;20416;-73
2022/04/11 03:51:51;;;;;;;10.03;6.73;;;1.70;99.90;;;;;;4972918;28;20551;-72
2022/04/11 03:54:17;;;;;;;14.10;7.90;;;1.70;99.90;;;;;;4973105;28;20212;-73
2022/04/11 03:56:42;;;;;;;8.03;7.03;;;1.70;99.90;;;;;;4973179;28;20651;-73
2022/04/11 03:59:08;;;;;;;7.77;6.33;;;1.70;99.90;;;;;;4973063;28;20168;-73
2022/04/11 04:01:33;;;;;;;10.20;7.07;;;1.70;99.90;;;;;;4972971;28;20190;-73
2022/04/11 04:03:59;;;;;;;10.47;7.80;;;1.60;99.90;;;;;;4973063;28;20186;-73
2022/04/11 04:06:25;;;;;;;7.83;6.87;;;1.70;99.90;;;;;;4972931;28;20724;-73
2022/04/11 04:08:50;;;;;;;12.97;6.97;;;1.70;99.90;;;;;;4972928;28;20183;-73
2022/04/11 04:11:16;;;;;;;8.40;6.20;;;1.70;99.90;;;;;;4972537;28;20204;-73
2022/04/11 04:13:41;;;;;;;15.10;8.20;;;1.60;99.90;;;;;;4972861;28;20699;-73
2022/04/11 04:16:07;;;;;;;9.07;6.73;;;1.60;99.90;;;;;;4972853;28;20180;-73
2022/04/11 04:18:32;;;;;;;9.40;6.60;;;1.60;99.90;;;;;;4972821;28;20256;-72
2022/04/11 04:20:59;;;;;;;7.33;5.63;;;1.50;99.90;;;;;;4972464;28;20229;-73
2022/04/11 04:23:24;;;;;;;11.00;7.37;;;1.50;99.90;;;;;;4972523;28;20178;-73
2022/04/11 04:25:50;;;;;;;8.07;6.97;;;1.50;99.90;;;;;;4972836;28;20445;-72
2022/04/11 04:28:17;;;;;;;10.07;5.97;;;1.40;99.90;;;;;;4972810;28;20204;-72
2022/04/11 04:30:44;;;;;;;12.73;7.03;;;1.40;99.90;;;;;;4972377;28;20179;-72
2022/04/11 04:33:09;;;;;;;11.60;6.83;;;1.40;99.90;;;;;;4972404;28;20400;-72
2022/04/11 04:35:35;;;;;;;11.60;6.90;;;1.30;99.90;;;;;;4972662;28;20986;-72
2022/04/11 04:38:00;;;;;;;9.00;7.07;;;1.40;99.90;;;;;;4972880;28;20263;-72
2022/04/11 04:40:26;;;;;;;8.90;6.20;;;1.40;99.90;;;;;;4972433;28;20175;-72
2022/04/11 04:42:51;;;;;;;7.20;6.50;;;1.30;99.90;;;;;;4972759;28;20662;-72
2022/04/11 04:45:18;;;;;;;16.13;7.30;;;1.30;99.90;;;;;;4972536;28;20193;-72
2022/04/11 04:47:43;;;;;;;10.90;8.60;;;1.30;99.90;;;;;;4972735;28;20268;-72
2022/04/11 04:50:09;;;;;;;8.83;7.73;;;1.30;99.90;;;;;;4972525;28;20513;-72
2022/04/11 04:52:37;;;;;;;9.73;6.93;;;1.30;99.90;;;;;;4972803;28;20199;-73
2022/04/11 04:55:03;;;;;;;7.87;7.00;;;1.30;99.90;;;;;;4971317;28;21078;-73
2022/04/11 04:57:29;;;;;;;8.07;7.27;;;1.30;99.90;;;;;;4972371;28;20478;-75
2022/04/11 04:59:55;;;;;;;9.83;7.00;;;1.20;99.90;;;;;;4972565;28;20181;-74
2022/04/11 05:02:20;;;;;;;9.10;7.43;;;1.30;99.90;;;;;;4971976;28;20197;-74
2022/04/11 05:04:46;;;;;;;14.20;9.20;;;1.30;99.90;;;;;;4973131;28;20769;-74
2022/04/11 05:07:12;;;;;;;14.27;7.27;;;1.30;99.90;;;;;;4972623;28;20168;-73
2022/04/11 05:09:38;;;;;;;8.80;6.77;;;1.20;99.90;;;;;;4972981;28;20416;-74
2022/04/11 05:12:04;;;;;;;12.67;7.73;;;1.20;99.90;;;;;;4971952;28;20239;-74
2022/04/11 05:14:29;;;;;;;15.43;7.93;;;1.20;99.90;;;;;;4972048;28;20586;-73
2022/04/11 05:16:55;;;;;;;9.73;8.07;;;1.20;99.90;;;;;;4972440;28;20422;-74
2022/04/11 05:19:20;;;;;;;11.37;8.20;;;1.30;99.90;;;;;;4971951;28;20184;-75
2022/04/11 05:21:46;;;;;;;13.00;7.77;;;1.30;99.90;;;;;;4971923;28;20713;-74
2022/04/11 05:24:11;;;;;;;11.97;8.30;;;1.30;99.90;;;;;;4971822;28;20188;-74
2022/04/11 05:26:37;;;;;;;11.80;9.03;;;1.40;99.90;;;;;;4972204;28;20247;-75
2022/04/11 05:29:03;;;;;;;14.03;7.83;;;1.50;99.90;;;;;;4972007;28;20195;-74
2022/04/11 05:31:29;;;;;;;13.40;8.17;;;1.70;99.90;;;;;;4971570;28;20205;-74
2022/04/11 05:33:55;;;;;;;7.57;6.87;;;2.20;99.90;;;;;;4973030;28;20862;-74
2022/04/11 05:36:20;;;;;;;9.13;6.50;;;3.50;99.90;;;;;;4969859;28;20198;-74
2022/04/11 05:38:46;;;;;;;10.40;6.60;;;4.60;99.90;;;;;;4974933;28;20195;-74
2022/04/11 05:41:12;;;;;;;6.53;5.93;;;5.70;99.90;;;;;;4974845;28;20228;-74
2022/04/11 05:43:38;;;;;;;8.03;6.33;;;7.00;99.90;;;;;;4975168;28;20176;-75
2022/04/11 05:46:05;;;;;;;9.57;6.10;;;7.90;99.90;;;;;;4975199;28;20762;-74
2022/04/11 05:48:32;;;;;;;9.53;6.30;;;9.10;99.90;;;;;;4975402;28;20176;-75
2022/04/11 05:50:59;;;;;;;7.07;6.30;;;9.70;99.90;;;;;;4975228;28;20952;-74
2022/04/11 05:53:25;;;;;;;14.57;7.00;;;8.90;99.90;;;;;;4975242;28;20423;-75
2022/04/11 05:55:50;;;;;;;13.93;7.30;;;7.90;99.90;;;;;;4975210;28;20411;-76
2022/04/11 05:58:16;;;;;;;8.93;6.50;;;8.00;99.90;;;;;;4975112;28;20424;-74
2022/04/11 06:00:41;;;;;;;7.07;6.43;;;9.40;99.90;;;;;;4974670;28;20180;-75
2022/04/11 06:03:07;;;;;;;9.60;7.20;;;11.00;99.90;;;;;;4975119;28;20531;-73
2022/04/11 06:05:32;;;;;;;10.33;6.60;;;12.20;99.90;;;;;;4975054;28;20179;-72
2022/04/11 06:07:58;;;;;;;8.60;7.00;;;12.90;99.90;;;;;;4975052;28;20183;-72
2022/04/11 06:10:23;;;;;;;7.00;6.33;;;12.50;99.90;;;;;;4975149;28;20215;-72
2022/04/11 06:12:50;;;;;;;8.10;6.63;;;11.80;99.90;;;;;;4975931;28;20255;-72
2022/04/11 06:15:18;;;;;;;10.20;7.43;;;11.00;99.90;;;;;;4974817;28;20695;-72
2022/04/11 06:17:44;;;;;;;8.30;6.97;;;11.20;99.90;;;;;;4974772;28;20418;-72
2022/04/11 06:20:11;;;;;;;7.67;6.70;;;12.40;99.90;;;;;;4974688;28;20435;-72
2022/04/11 06:22:38;;;;;;;6.87;6.20;;;13.90;99.90;;;;;;4974455;28;20676;-73
2022/04/11 06:25:05;;;;;;;8.93;6.87;;;14.90;99.90;;;;;;4974801;28;20422;-72
2022/04/11 06:27:32;;;;;;;8.50;6.63;;;16.20;99.90;;;;;;4973299;28;20427;-72
2022/04/11 06:29:58;;;;;;;15.30;7.27;;;16.60;99.90;;;;;;4974707;28;20423;-73
2022/04/11 06:32:29;;;;;;;7.07;6.10;;;17.20;99.90;;;;;;4974073;28;20470;-73
2022/04/11 06:34:55;;;;;;;12.03;6.80;;;17.50;99.90;;;;;;4974434;28;20204;-72
2022/04/11 06:37:21;;;;;;;9.73;6.77;;;17.20;99.90;;;;;;4973127;28;20439;-72
2022/04/11 06:39:50;;;;;;;9.10;8.20;;;17.10;99.90;;;;;;4972095;28;20455;-72
2022/04/11 06:42:16;;;;;;;9.73;8.27;;;16.90;99.90;;;;;;4973557;28;20196;-73
2022/04/11 06:44:41;;;;;;;10.33;7.47;;;16.50;99.90;;;;;;4973629;28;20478;-72
2022/04/11 06:47:08;;;;;;;7.43;6.80;;;16.10;99.90;;;;;;4973649;28;20180;-72
2022/04/11 06:49:35;;;;;;;8.40;7.60;;;15.50;99.90;;;;;;4973965;28;20168;-72
2022/04/11 06:52:00;;;;;;;10.57;8.80;;;15.30;99.90;;;;;;4973210;28;20443;-73
2022/04/11 06:54:26;;;;;;;10.20;7.50;;;14.80;99.90;;;;;;4973824;28;20470;-72
2022/04/11 06:56:51;;;;;;;8.43;7.63;;;14.40;99.90;;;;;;4974005;28;20581;-72
2022/04/11 06:59:16;;;;;;;17.87;7.67;;;14.30;99.90;;;;;;4973837;28;20231;-73
2022/04/11 07:01:42;;;;;;;14.80;7.57;;;14.30;99.90;;;;;;4973242;28;20218;-71
2022/04/11 07:04:08;;;;;;;7.40;6.67;;;13.90;99.90;;;;;;4973514;28;20679;-72
2022/04/11 07:06:33;;;;;;;12.30;9.33;;;13.90;99.90;;;;;;4973774;28;20176;-73
2022/04/11 07:08:59;;;;;;;12.40;6.97;;;13.60;99.90;;;;;;4973996;28;20656;-74
2022/04/11 07:11:25;;;;;;;12.73;7.20;;;13.50;99.90;;;;;;4973084;28;20204;-74
2022/04/11 07:13:50;;;;;;;9.70;6.77;;;13.40;99.90;;;;;;4973603;28;20267;-75
2022/04/11 07:16:15;;;;;;;7.27;6.50;;;13.50;99.90;;;;;;4973642;28;20172;-75
2022/04/11 07:18:41;;;;;;;7.37;6.50;;;13.50;99.90;;;;;;4973546;28;20877;-75
2022/04/11 07:21:06;;;;;;;13.03;6.80;;;14.00;99.90;;;;;;4973076;28;20195;-75
2022/04/11 07:23:32;;;;;;;9.07;7.03;;;13.90;99.90;;;;;;4973268;28;20181;-75
2022/04/11 07:25:58;;;;;;;8.60;5.93;;;13.90;99.90;;;;;;4973641;28;20184;-75
2022/04/11 07:28:23;;;;;;;12.47;6.90;;;13.50;99.90;;;;;;4973191;28;20279;-75
2022/04/11 07:30:49;;;;;;;8.77;6.93;;;13.70;99.90;;;;;;4972824;28;20184;-75
2022/04/11 07:33:14;;;;;;;9.27;6.97;;;13.60;99.90;;;;;;4972954;28;20208;-75
2022/04/11 07:35:40;;;;;;;7.40;6.60;;;13.80;99.90;;;;;;4973401;28;20310;-75
2022/04/11 07:38:05;;;;;;;7.90;7.07;;;13.90;99.90;;;;;;4973468;28;20180;-76
2022/04/11 07:40:31;;;;;;;10.27;6.57;;;13.70;99.90;;;;;;4972723;28;20176;-74
2022/04/11 07:42:57;;;;;;;12.00;6.47;;;13.80;99.90;;;;;;4972958;28;20254;-75
2022/04/11 07:45:23;;;;;;;13.00;6.10;;;14.20;99.90;;;;;;4991939;28;20191;-72
2022/04/11 07:47:49;;;;;;;8.73;6.00;;;13.90;99.90;;;;;;4992466;28;20406;-72
2022/04/11 07:50:15;;;;;;;8.83;6.57;;;13.90;99.90;;;;;;4992147;28;20270;-73
2022/04/11 07:52:42;;;;;;;6.90;5.50;;;13.60;99.90;;;;;;4991923;28;20196;-73
2022/04/11 07:55:10;;;;;;;6.80;5.93;;;13.70;99.90;;;;;;4992086;28;20199;-72
2022/04/11 07:57:35;;;;;;;7.20;5.47;;;13.90;99.90;;;;;;4992146;28;20411;-75
2022/04/11 08:00:01;;;;;;;9.87;5.87;;;14.30;99.90;;;;;;4992584;28;20417;-75
2022/04/11 08:02:27;;;;;;;5.10;4.60;;;14.10;99.90;;;;;;4991690;28;20872;-74
2022/04/11 08:04:53;;;;;;;6.70;5.10;;;14.00;99.90;;;;;;4992209;28;20254;-74
2022/04/11 08:07:19;;;;;;;4.63;4.23;;;13.80;99.90;;;;;;4991995;28;20779;-74
2022/04/11 08:09:45;;;;;;;6.40;4.97;;;14.00;99.90;;;;;;4992319;28;20505;-72
2022/04/11 08:12:10;;;;;;;11.17;5.17;;;14.30;99.90;;;;;;4991539;28;20536;-73
2022/04/11 08:14:36;;;;;;;5.00;4.60;;;14.50;99.90;;;;;;4992103;28;20221;-73
2022/04/11 08:17:05;;;;;;;8.33;5.20;;;14.40;99.90;;;;;;4991953;28;20222;-74
2022/04/11 08:19:30;;;;;;;6.77;4.10;;;14.20;99.90;;;;;;4991914;28;20187;-73
2022/04/11 08:21:57;;;;;;;4.70;4.17;;;14.30;99.90;;;;;;4991532;28;20431;-74
2022/04/11 08:24:22;;;;;;;6.40;4.57;;;14.80;99.90;;;;;;4991626;28;20671;-75
2022/04/11 08:26:48;;;;;;;5.37;3.77;;;15.20;99.90;;;;;;4992210;28;20415;-74
2022/04/11 08:29:13;;;;;;;5.37;4.87;;;14.80;99.90;;;;;;4991617;28;20183;-75
2022/04/11 08:31:39;;;;;;;5.17;3.83;;;15.00;99.90;;;;;;4991298;28;20683;-73
2022/04/11 08:34:05;;;;;;;4.50;4.10;;;15.10;99.90;;;;;;4991641;28;20191;-74
2022/04/11 08:36:30;;;;;;;4.70;3.47;;;15.00;99.90;;;;;;4991842;28;20237;-73
2022/04/11 08:38:56;;;;;;;4.27;3.83;;;14.90;99.90;;;;;;4991968;28;20235;-73
2022/04/11 08:41:26;;;;;;;4.30;3.90;;;14.60;99.90;;;;;;4991050;28;20187;-73
2022/04/11 08:43:53;;;;;;;3.93;3.47;;;14.90;99.90;;;;;;4991799;28;20198;-73
2022/04/11 08:46:20;;;;;;;4.70;4.13;;;14.80;99.90;;;;;;4991552;28;20415;-73
2022/04/11 08:48:45;;;;;;;5.53;3.30;;;14.90;99.90;;;;;;4991870;28;20411;-74
2022/04/11 08:51:11;;;;;;;5.13;4.27;;;15.40;99.90;;;;;;4990791;28;20441;-74
2022/04/11 08:53:37;;;;;;;5.60;3.47;;;15.60;99.90;;;;;;4991582;28;20278;-72
2022/04/11 08:56:03;;;;;;;5.33;3.90;;;15.50;99.90;;;;;;4991689;28;20190;-74
2022/04/11 08:58:28;;;;;;;4.17;3.80;;;16.00;99.90;;;;;;4991616;28;20746;-74
2022/04/11 09:00:54;;;;;;;5.97;3.60;;;16.40;99.90;;;;;;4991162;28;20207;-73
2022/04/11 09:03:19;;;;;;;4.17;3.33;;;16.60;99.90;;;;;;4991358;28;20176;-73
2022/04/11 09:06:03;;;;;;;3.73;3.00;;;16.60;99.00;;;;;;4991548;28;20538;-74
2022/04/11 09:08:42;;;;;;;4.30;3.40;;;16.30;97.20;;;;;;4992055;28;20179;-73
2022/04/11 09:11:08;;;;;;;4.17;3.20;;;16.70;97.80;;;;;;4994742;28;20462;-73
2022/04/11 09:13:49;;;;;;;4.73;3.10;;;16.90;96.40;;;;;;4995278;28;20480;-73
2022/04/11 09:16:15;;;;;;;3.23;2.40;;;16.90;96.10;;;;;;4995050;28;20414;-73
2022/04/11 09:18:52;;;;;;;3.60;3.30;;;17.00;96.10;;;;;;4995501;28;20484;-73
2022/04/11 09:21:23;;;;;;;3.37;2.90;;;16.50;95.80;;;;;;4994222;28;20426;-74
2022/04/11 09:23:49;;;;;;;3.40;3.20;;;17.00;96.90;;;;;;4995428;28;20987;-73
2022/04/11 09:26:23;;;;;;;3.57;3.17;;;17.70;95.20;;;;;;4978917;28;20784;-74
2022/04/11 09:29:00;;;;;;;5.33;2.43;;;17.50;92.90;;;;;;4976382;28;20413;-73
2022/04/11 09:31:26;;;;;;;2.83;2.63;;;17.60;94.00;;;;;;4974771;28;20459;-73
2022/04/11 09:33:51;;;;;;;3.73;2.83;;;16.90;92.20;;;;;;4975609;28;20506;-74
2022/04/11 09:36:17;;;;;;;2.37;2.13;;;16.70;93.70;;;;;;4974965;28;20411;-74
2022/04/11 09:38:42;;;;;;;6.27;3.00;;;16.90;93.60;;;;;;4975576;28;20180;-73
2022/04/11 09:41:08;;;;;;;4.17;3.17;;;17.00;93.40;;;;;;4974818;28;20195;-74
2022/04/11 09:43:34;;;;;;;2.90;2.70;;;17.10;93.20;;;;;;4974228;28;20203;-74
2022/04/11 09:46:02;;;;;;;5.93;2.40;;;17.30;93.10;;;;;;4975345;28;20235;-74
2022/04/11 09:48:35;;;;;;;5.87;2.70;;;17.70;92.60;;;;;;4975271;28;20928;-74
2022/04/11 09:51:07;;;;;;;3.10;2.80;;;18.40;91.80;;;;;;4974900;28;20447;-73
2022/04/11 09:53:35;;;;;;;3.73;2.70;;;17.80;92.70;;;;;;4975044;28;20498;-73
2022/04/11 09:56:05;;;;;;;2.43;2.20;;;17.80;92.00;;;;;;4975128;28;20411;-74
2022/04/11 09:58:33;;;;;;;3.27;2.33;;;17.70;91.00;;;;;;4973819;28;20510;-74
2022/04/11 10:01:02;;;;;;;2.90;2.47;;;17.80;87.20;;;;;;4974609;28;20529;-73
2022/04/11 10:03:28;;;;;;;2.63;2.23;;;17.70;88.60;;;;;;4974851;28;20408;-74
2022/04/11 10:05:54;;;;;;;1.93;1.83;;;17.90;90.60;;;;;;4974830;28;20447;-74
2022/04/11 10:08:24;;;;;;;3.87;2.20;;;17.80;86.90;;;;;;4974646;28;20947;-73
2022/04/11 10:10:51;;;;;;;4.70;1.80;;;17.80;88.20;;;;;;4974489;28;20168;-74
2022/04/11 10:13:17;;;;;;;4.43;1.70;;;17.70;91.50;;;;;;4975114;28;20502;-74
2022/04/11 10:15:48;;;;;;;3.23;2.97;;;17.80;89.30;;;;;;4974577;28;20546;-74
2022/04/11 10:18:17;;;;;;;5.00;1.90;;;18.00;87.80;;;;;;4974748;28;20172;-73
2022/04/11 10:20:49;;;;;;;2.93;2.60;;;18.30;91.60;;;;;;4973853;28;20935;-72
2022/04/11 10:23:31;;;;;;;1.97;1.80;;;18.30;85.10;;;;;;4974615;28;20419;-74
2022/04/11 10:26:00;;;;;;;3.03;1.90;;;17.90;84.40;;;;;;4974609;28;20473;-74
2022/04/11 10:28:28;;;;;;;2.67;2.43;;;17.70;85.60;;;;;;4974400;28;20426;-75
2022/04/11 10:31:04;;;;;;;3.57;2.40;;;18.00;87.10;;;;;;4973794;28;20459;-73
2022/04/11 10:33:59;;;;;;;2.20;1.83;;;18.00;84.90;;;;;;4974731;28;20411;-73
2022/04/11 10:36:29;;;;;;;2.33;2.13;;;18.20;85.20;;;;;;4965426;28;20799;-74
2022/04/11 10:39:13;;;;;;;4.83;1.97;;;18.20;84.00;;;;;;4975700;28;20506;-74
2022/04/11 10:41:57;;;;;;;2.43;2.23;;;17.90;87.40;;;;;;4974227;28;20435;-73
2022/04/11 10:44:42;;;;;;;2.80;1.80;;;17.80;83.50;;;;;;4975978;28;20940;-73
2022/04/11 10:47:08;;;;;;;2.03;1.93;;;18.00;83.30;;;;;;4974239;28;20439;-74
2022/04/11 10:49:48;;;;;;;2.47;2.27;;;18.30;80.30;;;;;;4974067;28;20458;-74
2022/04/11 10:52:32;;;;;;;3.03;2.13;;;18.30;84.00;;;;;;4972259;28;20327;-75
2022/04/11 10:55:12;;;;;;;3.33;1.50;;;18.00;78.80;;;;;;4973905;28;20467;-75
2022/04/11 10:57:38;;;;;;;3.27;1.87;;;17.60;79.90;;;;;;4973992;28;20466;-74
2022/04/11 11:00:07;;;;;;;3.23;2.43;;;17.70;81.00;;;;;;4973847;28;20411;-75
2022/04/11 11:02:54;;;;;;;1.90;1.60;;;17.50;80.00;;;;;;4973262;28;20427;-74
2022/04/11 11:05:30;;;;;;;2.83;2.17;;;17.70;80.00;;;;;;4972767;28;20480;-73
2022/04/11 11:08:14;;;;;;;3.80;1.83;;;17.80;80.00;;;;;;4965195;28;20419;-73
2022/04/11 11:10:53;;;;;;;2.27;1.93;;;17.80;83.00;;;;;;4973126;28;20426;-73
2022/04/11 11:13:32;;;;;;;1.83;1.63;;;17.90;85.80;;;;;;4973654;28;20412;-72
2022/04/11 11:15:59;;;;;;;1.97;1.70;;;18.00;80.50;;;;;;4973566;28;20870;-72
2022/04/11 11:18:25;;;;;;;1.77;1.50;;;17.90;81.10;;;;;;4973414;28;20430;-72
2022/04/11 11:20:54;;;;;;;1.97;1.70;;;18.00;84.10;;;;;;4971438;28;20786;-72
2022/04/11 11:23:21;;;;;;;2.40;2.10;;;17.80;79.90;;;;;;4973362;28;20457;-73
2022/04/11 11:25:48;;;;;;;2.57;2.23;;;17.50;79.10;;;;;;4973139;28;20423;-72
2022/04/11 11:28:13;;;;;;;4.20;2.10;;;17.10;81.50;;;;;;4973005;28;20419;-72
2022/04/11 11:30:39;;;;;;;5.30;2.27;;;16.80;81.30;;;;;;4970526;28;20931;-72
2022/04/11 11:33:08;;;;;;;1.97;1.87;;;16.80;82.70;;;;;;4972185;28;20203;-72
2022/04/11 11:35:33;;;;;;;2.87;2.23;;;16.70;81.30;;;;;;4973030;28;20199;-72
2022/04/11 11:38:05;;;;;;;2.30;2.20;;;16.70;82.90;;;;;;4973009;28;20414;-72
2022/04/11 11:40:31;;;;;;;2.63;2.43;;;17.00;85.10;;;;;;4972614;28;20719;-72
2022/04/11 11:42:56;;;;;;;1.90;1.80;;;16.90;82.30;;;;;;4972740;28;20440;-72
2022/04/11 11:45:28;;;;;;;2.07;1.97;;;17.10;81.20;;;;;;4972761;28;20190;-73
2022/04/11 11:47:54;;;;;;;1.70;1.60;;;17.00;80.90;;;;;;4973066;28;20180;-72
2022/04/11 11:50:20;;;;;;;4.90;2.13;;;16.70;79.10;;;;;;4972593;28;20474;-73
2022/04/11 11:52:57;;;;;;;2.40;2.10;;;16.50;79.70;;;;;;4972678;28;20278;-72
2022/04/11 11:55:22;;;;;;;2.70;2.20;;;16.50;80.30;;;;;;4972585;28;20754;-72
2022/04/11 11:58:04;;;;;;;2.80;2.60;;;16.50;79.30;;;;;;4972855;28;20413;-73
2022/04/11 12:00:34;;;;;;;3.23;2.13;;;16.30;80.50;;;;;;4972253;28;20678;-73
2022/04/11 12:05:44;;;;;;;2.30;2.00;;;16.50;81.40;;;;;;4972998;28;20414;-73
2022/04/11 12:08:13;;;;;;;2.17;2.07;;;16.70;79.80;;;;;;4972612;28;20506;-72
2022/04/11 12:10:39;;;;;;;2.07;1.93;;;16.70;78.70;;;;;;4972108;28;20190;-72
2022/04/11 12:13:05;;;;;;;3.73;2.30;;;16.60;79.50;;;;;;4972555;28;20431;-72
2022/04/11 12:15:31;;;;;;;1.80;1.70;;;16.60;79.90;;;;;;4972520;28;20485;-72
2022/04/11 12:18:05;;;;;;;2.50;2.17;;;16.30;81.20;;;;;;4972530;28;20201;-72
2022/04/11 12:20:31;;;;;;;2.27;1.70;;;16.20;80.50;;;;;;4972205;28;20434;-72
2022/04/11 12:23:10;;;;;;;7.63;2.37;;;16.20;77.40;;;;;;4972326;28;20424;-72
2022/04/11 12:25:41;;;;;;;3.60;2.17;;;16.20;76.00;;;;;;4971330;28;20419;-72
2022/04/11 12:28:24;;;;;;;2.80;2.00;;;16.20;78.30;;;;;;4972434;28;20416;-73
2022/04/11 12:31:02;;;;;;;1.93;1.80;;;16.40;79.00;;;;;;4971856;28;20939;-72
2022/04/11 12:33:38;;;;;;;2.20;2.00;;;16.40;78.50;;;;;;4972361;28;20915;-72
2022/04/11 12:36:12;;;;;;;5.83;2.60;;;16.20;76.60;;;;;;4972474;28;20417;-72
2022/04/11 12:38:51;;;;;;;2.17;2.07;;;16.20;79.00;;;;;;4972268;28;20521;-72
2022/04/11 12:41:36;;;;;;;3.20;2.37;;;16.40;83.40;;;;;;4971644;28;20426;-71
2022/04/11 12:44:07;;;;;;;2.47;2.27;;;16.50;79.00;;;;;;4975517;28;20425;-73
2022/04/11 12:46:34;;;;;;;3.03;2.50;;;16.60;80.20;;;;;;4975978;28;20882;-72
2022/04/11 12:49:01;;;;;;;7.97;2.33;;;16.70;79.00;;;;;;4976237;28;20880;-72
2022/04/11 12:51:29;;;;;;;4.70;2.50;;;16.70;78.30;;;;;;4975429;28;20449;-72
2022/04/11 12:54:21;;;;;;;2.23;1.90;;;16.80;79.40;;;;;;4976001;28;20454;-73
2022/04/11 12:56:49;;;;;;;1.80;1.70;;;16.90;81.10;;;;;;4973818;28;20514;-72
2022/04/11 12:59:32;;;;;;;5.63;2.30;;;16.90;80.20;;;;;;4975334;28;20418;-73
2022/04/11 13:02:07;;;;;;;4.10;2.20;;;17.00;79.70;;;;;;4975606;28;20433;-72
2022/04/11 13:04:35;;;;;;;2.40;2.20;;;17.00;78.40;;;;;;4976124;28;20482;-73
2022/04/11 13:07:01;;;;;;;4.03;2.30;;;16.90;78.80;;;;;;4976148;28;20419;-73
2022/04/11 13:09:27;;;;;;;5.20;2.83;;;16.80;79.10;;;;;;4976188;28;20470;-72
2022/04/11 13:11:54;;;;;;;2.87;2.43;;;16.60;78.40;;;;;;4975599;28;20977;-74
2022/04/11 13:14:20;;;;;;;2.43;2.20;;;16.60;79.20;;;;;;4975814;28;20291;-73
2022/04/11 13:19:30;;;;;;;4.53;1.90;;;16.40;80.70;;;;;;4975910;28;20510;-73
2022/04/11 13:21:56;;;;;;;2.23;2.03;;;16.40;78.30;;;;;;4975462;28;20514;-73
2022/04/11 13:24:21;;;;;;;2.67;2.40;;;16.40;79.30;;;;;;4976116;28;20176;-73
2022/04/11 13:26:48;;;;;;;3.60;2.37;;;16.50;81.50;;;;;;4975689;28;20191;-73
2022/04/11 13:29:14;;;;;;;2.57;2.37;;;16.30;78.60;;;;;;4975493;28;20169;-73
2022/04/11 13:31:40;;;;;;;4.00;2.20;;;16.40;80.10;;;;;;4975252;28;20454;-73
2022/04/11 13:34:06;;;;;;;3.00;2.47;;;16.70;81.50;;;;;;4975543;28;20633;-72
2022/04/11 13:36:32;;;;;;;3.13;2.50;;;16.70;81.70;;;;;;4970275;28;20541;-73
2022/04/11 13:38:58;;;;;;;2.53;2.33;;;16.70;79.80;;;;;;4963124;28;20465;-73
2022/04/11 13:41:23;;;;;;;2.80;2.47;;;16.70;81.20;;;;;;4957139;28;20203;-72
2022/04/11 13:43:49;;;;;;;4.80;2.93;;;16.70;81.80;;;;;;4963308;28;20507;-73
2022/04/11 13:46:15;;;;;;;4.90;3.40;;;16.60;81.90;;;;;;4964602;28;20653;-72
2022/04/11 13:48:41;;;;;;;2.40;2.30;;;16.70;81.20;;;;;;4966903;28;20196;-72
2022/04/11 13:51:06;;;;;;;4.10;2.77;;;16.70;80.50;;;;;;4969013;28;20436;-73
2022/04/11 13:53:34;;;;;;;3.00;2.80;;;16.70;80.90;;;;;;4971773;28;20184;-73
2022/04/11 13:56:00;;;;;;;3.50;2.37;;;16.60;81.70;;;;;;4962744;28;20184;-72
2022/04/11 13:58:25;;;;;;;4.93;4.10;;;16.60;82.20;;;;;;4958752;28;20423;-72
2022/04/11 14:00:51;;;;;;;4.10;2.60;;;16.70;82.30;;;;;;4964664;28;20822;-72
2022/04/11 14:03:17;;;;;;;4.20;3.50;;;16.60;82.80;;;;;;4959051;28;20180;-73
2022/04/11 14:05:42;;;;;;;3.90;2.70;;;16.60;81.30;;;;;;4963733;28;20199;-73
2022/04/11 14:08:09;;;;;;;3.47;2.73;;;16.60;83.20;;;;;;4966189;28;20184;-73
2022/04/11 14:10:36;;;;;;;3.37;3.17;;;16.60;82.20;;;;;;4965728;28;20256;-72
2022/04/11 14:13:02;;;;;;;6.87;3.40;;;16.70;82.60;;;;;;4963801;28;20442;-73
2022/04/11 14:15:28;;;;;;;4.30;3.10;;;16.60;81.30;;;;;;4964726;28;20475;-75
2022/04/11 14:17:53;;;;;;;4.07;2.83;;;16.60;81.50;;;;;;4974802;28;20452;-74
2022/04/11 14:20:19;;;;;;;6.90;2.90;;;16.60;82.20;;;;;;4974679;28;20187;-74
2022/04/11 14:22:44;;;;;;;3.83;2.80;;;16.50;81.10;;;;;;4974501;28;20229;-73
2022/04/11 14:25:10;;;;;;;3.73;3.43;;;16.60;84.40;;;;;;4974711;28;20233;-74
2022/04/11 14:27:36;;;;;;;2.63;2.43;;;16.60;82.80;;;;;;4974665;28;20186;-74